Terminal Aerodrome Forecast
Issued by NWS Twin Cities, MN

Home | Current Version | Previous Version | Graphics & Text | Print | Product List | Glossary On
Versions: 1 2 3 4 5 6 7 8 9 10 11 12 13 14 15 16
000
FTUS43 KMPX 282340
TAFSTC
TAF
KSTC 282340Z 2900/2924 18014G22KT P6SM SCT060 BKN200
     FM290100 17008KT P6SM BKN100
     FM291200 17004KT P6SM VCSH BKN025 OVC070
     FM291700 30007KT 4SM -TSRA BR OVC018CB
     FM292000 34015G23KT P6SM VCSH BKN025=

USA.gov is the U.S. government's official web portal to all federal, state and local government web resources and services.